Terminal Aerodrome Forecast
Issued by NWS Quad Cities IA IL

Home | Current Version | Previous Version | Text Only | Print | Product List | Glossary On
Versions: 1 2 3 4 5 6 7 8 9 10 11 12 13 14 15 16 17
143
FTUS43 KDVN 231130
TAFMLI
TAF
KMLI 231130Z 2312/2412 25006KT P6SM BKN250
     FM231600 27010KT P6SM SCT040
     FM232200 30011G17KT P6SM SCT040
     FM240100 32008KT P6SM SKC
     FM240900 35003KT 6SM BR SKC=

USA.gov is the U.S. government's official web portal to all federal, state and local government web resources and services.